Time;durP1;ratioP1;P1;durP2;ratioP2;P2;SDS_P1;SDS_P2;PMS_P1;PMS_P2;Temp;Humidity;BMP_temperature;BMP_pressure;BME280_temperature;BME280_humidity;BME280_pressure;Samples;Min_cycle;Max_cycle;Signal;HPM_P1;HPM_P2
2022/01/25 00:24:53;;;;;;;58.55;28.05;;;4.40;99.90;;;;;;6277571;22;20031;-80
2022/01/25 00:29:58;;;;;;;65.15;29.63;;;4.40;99.90;;;;;;6277704;22;20494;-80
2022/01/25 00:32:24;;;;;;;56.72;28.80;;;4.40;99.90;;;;;;6252118;22;20517;-80
2022/01/25 00:34:50;;;;;;;66.38;28.13;;;4.30;99.90;;;;;;6278960;22;20011;-80
2022/01/25 00:37:16;;;;;;;62.75;28.58;;;4.40;99.90;;;;;;6278990;22;20440;-80
2022/01/25 00:39:42;;;;;;;65.25;28.63;;;4.40;99.90;;;;;;6278992;22;20047;-80
2022/01/25 00:42:09;;;;;;;64.65;29.77;;;4.40;99.90;;;;;;6279324;22;20016;-80
2022/01/25 00:44:39;;;;;;;62.58;28.60;;;4.30;99.90;;;;;;6251959;22;20027;-80
2022/01/25 00:47:07;;;;;;;63.10;28.33;;;4.40;99.90;;;;;;6251714;22;20324;-80
2022/01/25 00:49:37;;;;;;;57.72;28.10;;;4.40;99.90;;;;;;6251844;22;20083;-80
2022/01/25 00:52:18;;;;;;;61.53;29.30;;;4.40;99.90;;;;;;6251783;22;20012;-80
2022/01/25 00:54:45;;;;;;;61.45;27.98;;;4.30;99.90;;;;;;6279094;22;20022;-80
2022/01/25 00:57:10;;;;;;;62.35;30.90;;;4.30;99.90;;;;;;6279173;22;20008;-80
2022/01/25 00:59:36;;;;;;;68.68;30.75;;;4.40;99.90;;;;;;6279048;22;20381;-80
2022/01/25 01:02:13;;;;;;;66.85;29.65;;;4.30;99.90;;;;;;6279148;22;20008;-80
2022/01/25 01:04:42;;;;;;;62.95;30.42;;;4.30;99.90;;;;;;6278886;22;20113;-80
2022/01/25 01:07:11;;;;;;;64.65;28.23;;;4.30;99.90;;;;;;6251332;22;20015;-80
2022/01/25 01:09:39;;;;;;;58.90;29.00;;;4.40;99.90;;;;;;6251722;22;20023;-80
2022/01/25 01:12:12;;;;;;;66.93;31.80;;;4.40;99.90;;;;;;6278533;22;20518;-80
2022/01/25 01:31:15;;;;;;;58.15;27.40;;;4.30;99.90;;;;;;6251400;22;20024;-80
2022/01/25 01:36:58;;;;;;;62.65;29.80;;;4.30;99.90;;;;;;6278414;22;20365;-80
2022/01/25 01:44:50;;;;;;;58.90;26.92;;;4.30;99.90;;;;;;6227196;22;20439;-80
2022/01/25 01:47:24;;;;;;;60.63;28.33;;;4.30;99.90;;;;;;6278631;22;20023;-80
2022/01/25 01:49:51;;;;;;;63.35;28.77;;;4.30;99.90;;;;;;6251336;22;20015;-80
2022/01/25 01:52:17;;;;;;;64.07;30.85;;;4.30;99.90;;;;;;6251315;22;20020;-80
2022/01/25 01:54:42;;;;;;;64.05;30.85;;;4.30;99.90;;;;;;6278266;22;20450;-80
2022/01/25 01:57:09;;;;;;;58.65;28.92;;;4.30;99.90;;;;;;6278218;22;20012;-80
2022/01/25 01:59:35;;;;;;;64.90;28.33;;;4.30;99.90;;;;;;6278566;22;20012;-80
2022/01/25 02:02:01;;;;;;;65.72;30.02;;;4.30;99.90;;;;;;6251215;22;20024;-80
2022/01/25 02:04:27;;;;;;;64.25;29.13;;;4.30;99.90;;;;;;6278539;22;20019;-80
2022/01/25 02:06:53;;;;;;;60.58;28.85;;;4.30;99.90;;;;;;6278081;22;20031;-80
2022/01/25 02:09:19;;;;;;;67.93;28.60;;;4.30;99.90;;;;;;6277741;22;20015;-80
2022/01/25 02:11:45;;;;;;;64.15;28.67;;;4.30;99.90;;;;;;6251024;22;20055;-80
2022/01/25 02:14:15;;;;;;;60.60;28.60;;;4.30;99.90;;;;;;6278497;22;20012;-80
2022/01/25 02:25:06;;;;;;;61.13;27.92;;;4.30;99.90;;;;;;6159749;23;20029;-80
2022/01/25 02:27:32;;;;;;;67.07;29.85;;;4.30;99.90;;;;;;6184411;23;20068;-80
2022/01/25 02:29:57;;;;;;;61.30;30.52;;;4.30;99.90;;;;;;6228102;22;20019;-80
2022/01/25 02:32:23;;;;;;;65.13;29.65;;;4.30;99.90;;;;;;6278202;22;20505;-80
2022/01/25 02:34:49;;;;;;;64.18;27.88;;;4.30;99.90;;;;;;6250827;22;20026;-80
2022/01/25 02:37:16;;;;;;;65.05;28.92;;;4.30;99.90;;;;;;6250949;22;20046;-80
2022/01/25 02:39:42;;;;;;;64.00;29.70;;;4.30;99.90;;;;;;6278195;22;20016;-80
2022/01/25 02:42:11;;;;;;;65.28;29.48;;;4.30;99.90;;;;;;6278220;22;20014;-80
2022/01/25 02:44:37;;;;;;;61.20;29.73;;;4.30;99.90;;;;;;6250694;22;20444;-80
2022/01/25 02:49:31;;;;;;;61.20;29.35;;;4.30;99.90;;;;;;6278046;22;20027;-80
2022/01/25 02:52:00;;;;;;;63.13;30.02;;;4.30;99.90;;;;;;6250489;22;20019;-80
2022/01/25 02:54:26;;;;;;;63.85;28.80;;;4.30;99.90;;;;;;6277744;22;20023;-83
2022/01/25 02:56:51;;;;;;;62.30;27.25;;;4.30;99.90;;;;;;6250663;22;20070;-83
2022/01/25 02:59:17;;;;;;;62.38;27.80;;;4.30;99.90;;;;;;6250632;22;20343;-83
2022/01/25 03:01:44;;;;;;;60.88;28.55;;;4.30;99.90;;;;;;6277499;22;20073;-82
2022/01/25 03:04:11;;;;;;;61.83;28.45;;;4.30;99.90;;;;;;6250576;22;20026;-82
2022/01/25 03:06:37;;;;;;;61.08;28.92;;;4.30;99.90;;;;;;6250380;22;20340;-81
2022/01/25 03:09:04;;;;;;;63.25;29.60;;;4.30;99.90;;;;;;6250272;22;20051;-80
2022/01/25 03:11:30;;;;;;;64.35;28.35;;;4.30;99.90;;;;;;6277976;22;20027;-80
2022/01/25 03:13:59;;;;;;;63.47;29.70;;;4.30;99.90;;;;;;6250473;22;20086;-80
2022/01/25 03:16:34;;;;;;;68.25;30.88;;;4.30;99.90;;;;;;6277903;22;20011;-80
2022/01/25 03:19:03;;;;;;;60.00;28.92;;;4.30;99.90;;;;;;6250491;22;20015;-80
2022/01/25 03:23:57;;;;;;;65.63;29.90;;;4.30;99.90;;;;;;6250438;22;20073;-80
2022/01/25 03:26:25;;;;;;;61.53;28.15;;;4.30;99.90;;;;;;6250335;22;20012;-80
2022/01/25 03:28:52;;;;;;;69.32;28.70;;;4.30;99.90;;;;;;6277746;22;20020;-80
2022/01/25 03:31:17;;;;;;;66.30;28.35;;;4.30;99.90;;;;;;6250247;22;20012;-80
2022/01/25 03:33:43;;;;;;;68.38;30.45;;;4.30;99.90;;;;;;6277238;22;20513;-80
2022/01/25 03:36:10;;;;;;;68.20;29.23;;;4.30;99.90;;;;;;6250343;22;20020;-80
2022/01/25 03:38:37;;;;;;;62.63;29.70;;;4.30;99.90;;;;;;6250161;22;20011;-80
2022/01/25 03:41:09;;;;;;;70.93;30.98;;;4.30;99.90;;;;;;6277346;22;20339;-80
2022/01/25 03:43:36;;;;;;;62.08;29.33;;;4.30;99.90;;;;;;6277308;22;20439;-80
2022/01/25 03:51:01;;;;;;;66.53;29.58;;;4.30;99.90;;;;;;6250076;22;20023;-80
2022/01/25 03:53:27;;;;;;;68.45;30.52;;;4.30;99.90;;;;;;6277548;22;20016;-80
2022/01/25 03:55:52;;;;;;;61.38;27.42;;;4.30;99.90;;;;;;6277093;22;20037;-80
2022/01/25 03:58:20;;;;;;;59.28;30.40;;;4.30;99.90;;;;;;6250039;22;20435;-80
2022/01/25 04:00:46;;;;;;;58.03;28.02;;;4.30;99.90;;;;;;6277473;22;20012;-80
2022/01/25 04:06:06;;;;;;;64.20;28.42;;;4.30;99.90;;;;;;6256616;22;20098;-83
2022/01/25 04:08:33;;;;;;;63.80;27.95;;;4.30;99.90;;;;;;6249743;22;20100;-82
2022/01/25 04:11:00;;;;;;;64.63;27.40;;;4.30;99.90;;;;;;6249937;22;20443;-82
2022/01/25 04:13:25;;;;;;;65.38;27.92;;;4.30;99.90;;;;;;6277030;22;20019;-82
2022/01/25 04:15:54;;;;;;;60.65;27.48;;;4.30;99.90;;;;;;6277397;22;20038;-81
2022/01/25 04:18:58;;;;;;;61.97;27.63;;;4.30;99.90;;;;;;6277306;22;20023;-81
2022/01/25 04:21:27;;;;;;;63.65;27.25;;;4.30;99.90;;;;;;6245255;22;20027;-81
2022/01/25 04:26:37;;;;;;;65.75;29.15;;;4.30;99.90;;;;;;6277169;22;20049;-81
2022/01/25 04:29:03;;;;;;;62.65;28.13;;;4.30;99.90;;;;;;6249859;22;20095;-81
2022/01/25 04:31:29;;;;;;;63.55;28.58;;;4.30;99.90;;;;;;6276875;22;20466;-81
2022/01/25 04:34:14;;;;;;;59.53;28.05;;;4.30;99.90;;;;;;6249905;22;20024;-81
2022/01/25 04:50:05;;;;;;;61.28;27.40;;;4.20;99.90;;;;;;6249727;22;20347;-81
2022/01/25 04:52:37;;;;;;;60.88;27.42;;;4.30;99.90;;;;;;6277224;22;20011;-81
2022/01/25 04:55:16;;;;;;;65.57;30.33;;;4.30;99.90;;;;;;6276778;22;20399;-81
2022/01/25 04:57:49;;;;;;;68.05;28.40;;;4.30;99.90;;;;;;6249824;22;20065;-81
2022/01/25 05:00:18;;;;;;;;;;;4.30;99.90;;;;;;6250303;22;20103;-83
2022/01/25 05:05:25;;;;;;;64.13;28.15;;;4.30;99.90;;;;;;6277083;22;20038;-80
2022/01/25 05:08:16;;;;;;;61.05;28.33;;;4.30;99.90;;;;;;6276524;22;20030;-89
2022/01/25 05:10:59;;;;;;;71.88;28.85;;;4.30;99.90;;;;;;6249701;22;20023;-81
2022/01/25 05:16:04;;;;;;;66.63;29.88;;;4.20;99.90;;;;;;6250319;22;20047;-81
2022/01/25 05:19:19;;;;;;;62.70;27.27;;;4.30;99.90;;;;;;6251551;22;20019;-82
2022/01/25 05:24:06;;;;;;;63.58;27.92;;;4.30;99.90;;;;;;6278673;22;20059;-80
2022/01/25 05:26:31;;;;;;;61.42;28.08;;;4.20;99.90;;;;;;6278862;22;20012;-80
2022/01/25 05:28:58;;;;;;;63.70;29.27;;;4.20;99.90;;;;;;6278941;22;20051;-80
2022/01/25 05:31:24;;;;;;;70.90;27.75;;;4.20;99.90;;;;;;6251575;22;20092;-80
2022/01/25 05:33:49;;;;;;;67.38;28.95;;;4.20;99.90;;;;;;6278911;22;20047;-80
2022/01/25 05:36:16;;;;;;;59.78;28.13;;;4.20;99.90;;;;;;6278871;22;20023;-80
2022/01/25 05:38:42;;;;;;;61.13;27.95;;;4.30;99.90;;;;;;6252438;22;20059;-81
2022/01/25 05:41:08;;;;;;;68.20;28.48;;;4.30;99.90;;;;;;6251429;22;20443;-80
2022/01/25 05:46:20;;;;;;;65.72;27.75;;;4.20;99.90;;;;;;6278296;22;20024;-80
2022/01/25 05:48:47;;;;;;;69.57;29.50;;;4.20;99.90;;;;;;6251267;22;20015;-80
2022/01/25 05:51:14;;;;;;;65.38;29.70;;;4.20;99.90;;;;;;6278561;22;20012;-81
2022/01/25 05:53:42;;;;;;;65.30;29.08;;;4.20;99.90;;;;;;6278709;22;20024;-80
2022/01/25 05:56:09;;;;;;;59.67;27.67;;;4.20;99.90;;;;;;6251246;22;20016;-80
2022/01/25 05:58:34;;;;;;;68.68;31.48;;;4.20;99.90;;;;;;6278634;22;20008;-80
2022/01/25 06:01:00;;;;;;;66.32;29.33;;;4.30;99.90;;;;;;6278610;22;20038;-80
2022/01/25 06:03:26;;;;;;;65.68;29.00;;;4.20;99.90;;;;;;6251212;22;20058;-80
2022/01/25 06:05:51;;;;;;;65.72;29.33;;;4.30;99.90;;;;;;6278055;22;20090;-80
2022/01/25 06:08:17;;;;;;;64.22;28.55;;;4.20;99.90;;;;;;6250904;22;20023;-80
2022/01/25 06:10:43;;;;;;;69.53;29.90;;;4.30;99.90;;;;;;6278492;22;20007;-80
2022/01/25 06:13:09;;;;;;;65.28;28.67;;;4.30;99.90;;;;;;6251111;22;20028;-80
2022/01/25 06:15:34;;;;;;;66.10;28.58;;;4.30;99.90;;;;;;6278441;22;20082;-80
2022/01/25 06:18:00;;;;;;;67.60;28.58;;;4.30;99.90;;;;;;6251065;22;20019;-80
2022/01/25 06:20:28;;;;;;;65.40;29.52;;;4.30;99.90;;;;;;6250921;22;20026;-80
2022/01/25 06:22:54;;;;;;;64.50;29.33;;;4.30;99.90;;;;;;6278337;22;20022;-80
2022/01/25 06:25:20;;;;;;;64.85;28.48;;;4.20;99.90;;;;;;6278325;22;20090;-80
2022/01/25 06:27:46;;;;;;;66.30;28.42;;;4.30;99.90;;;;;;6277747;22;20054;-80
2022/01/25 06:30:17;;;;;;;63.30;27.63;;;4.20;99.90;;;;;;6250872;22;20086;-80
2022/01/25 06:32:44;;;;;;;63.50;27.10;;;4.20;99.90;;;;;;6278286;22;20022;-80
2022/01/25 06:35:10;;;;;;;65.75;28.88;;;4.20;99.90;;;;;;6278213;22;20038;-80
2022/01/25 06:37:36;;;;;;;61.22;26.60;;;4.30;99.90;;;;;;6277952;22;20376;-80
2022/01/25 06:40:04;;;;;;;63.75;27.48;;;4.30;99.90;;;;;;6278282;22;20086;-80
2022/01/25 06:42:31;;;;;;;71.18;29.15;;;4.20;99.90;;;;;;6278183;22;20026;-80
2022/01/25 06:45:02;;;;;;;67.60;29.08;;;4.30;99.90;;;;;;6278258;22;20079;-81
2022/01/25 06:47:27;;;;;;;66.22;27.98;;;4.30;99.90;;;;;;6250670;22;20023;-80
2022/01/25 06:49:53;;;;;;;61.70;27.85;;;4.20;99.90;;;;;;6278193;22;20012;-80
2022/01/25 06:52:19;;;;;;;67.80;27.92;;;4.20;99.90;;;;;;6278110;22;20018;-80
2022/01/25 06:54:45;;;;;;;64.93;26.25;;;4.20;99.90;;;;;;6277730;22;20050;-80
2022/01/25 06:57:10;;;;;;;64.90;27.35;;;4.20;99.90;;;;;;6250663;22;20024;-80
2022/01/25 06:59:36;;;;;;;61.40;26.85;;;4.20;99.90;;;;;;6250650;22;20050;-80
2022/01/25 07:02:02;;;;;;;72.47;29.70;;;4.30;99.90;;;;;;6250968;22;20342;-80
2022/01/25 07:04:28;;;;;;;69.80;30.30;;;4.20;99.90;;;;;;6278030;22;20074;-80
2022/01/25 07:06:54;;;;;;;79.03;33.03;;;4.30;99.90;;;;;;6250457;22;20050;-80
2022/01/25 07:09:19;;;;;;;69.45;28.17;;;4.20;99.90;;;;;;6277496;22;20019;-80
2022/01/25 07:11:45;;;;;;;67.55;28.45;;;4.20;99.90;;;;;;6277900;22;20019;-80
2022/01/25 07:14:11;;;;;;;68.65;28.85;;;4.30;99.90;;;;;;6250523;22;20016;-80
2022/01/25 07:16:36;;;;;;;69.80;28.92;;;4.30;99.90;;;;;;6277498;22;20046;-80
2022/01/25 07:19:02;;;;;;;62.83;29.42;;;4.30;99.90;;;;;;6250385;22;20022;-81
2022/01/25 07:21:28;;;;;;;69.32;29.23;;;4.30;99.90;;;;;;6250353;22;20024;-81
2022/01/25 07:23:53;;;;;;;63.95;27.83;;;4.30;99.90;;;;;;6277481;22;20012;-80
2022/01/25 07:26:19;;;;;;;62.28;27.58;;;4.30;99.90;;;;;;6277789;22;20430;-80
2022/01/25 07:28:46;;;;;;;67.70;27.42;;;4.30;99.90;;;;;;6250367;22;20034;-80
2022/01/25 07:31:12;;;;;;;65.20;29.02;;;4.30;99.90;;;;;;6277425;22;20026;-81
2022/01/25 07:33:38;;;;;;;63.95;28.52;;;4.30;99.90;;;;;;6277345;22;20011;-81
2022/01/25 07:36:05;;;;;;;62.28;27.58;;;4.30;99.90;;;;;;6250251;22;20023;-80
2022/01/25 07:38:31;;;;;;;59.53;26.08;;;4.30;99.90;;;;;;6277598;22;20051;-80
2022/01/25 07:40:56;;;;;;;64.68;28.42;;;4.30;99.90;;;;;;6277664;22;20023;-81
2022/01/25 07:43:22;;;;;;;63.63;28.38;;;4.30;99.90;;;;;;6250231;22;20095;-80
2022/01/25 07:45:52;;;;;;;66.72;27.90;;;4.30;99.90;;;;;;6277358;22;20019;-80
2022/01/25 07:48:19;;;;;;;61.45;28.00;;;4.30;99.90;;;;;;6250264;22;20022;-80
2022/01/25 07:50:45;;;;;;;71.03;30.02;;;4.30;99.90;;;;;;6277326;22;20039;-81
2022/01/25 07:53:11;;;;;;;71.25;30.05;;;4.30;99.90;;;;;;6277373;22;20043;-80
2022/01/25 07:55:37;;;;;;;64.20;27.88;;;4.30;99.90;;;;;;6277254;22;20331;-80
2022/01/25 07:58:03;;;;;;;71.00;27.88;;;4.30;99.90;;;;;;6249861;22;20015;-80
2022/01/25 08:00:30;;;;;;;64.22;27.75;;;4.30;99.90;;;;;;6277126;22;20141;-81
2022/01/25 08:02:55;;;;;;;64.68;28.52;;;4.30;99.90;;;;;;6250513;22;20012;-82
2022/01/25 08:05:24;;;;;;;64.00;28.20;;;4.30;99.90;;;;;;6249346;22;20346;-80
2022/01/25 08:07:49;;;;;;;67.00;28.38;;;4.30;99.90;;;;;;6275548;22;20054;-80
2022/01/25 08:10:15;;;;;;;67.93;29.08;;;4.30;99.90;;;;;;6247812;22;20016;-80
2022/01/25 08:12:42;;;;;;;69.03;28.70;;;4.30;99.90;;;;;;6249068;22;20023;-80
2022/01/25 08:15:08;;;;;;;61.70;28.52;;;4.30;99.90;;;;;;6249716;22;20073;-80
2022/01/25 08:17:34;;;;;;;61.63;29.45;;;4.30;99.90;;;;;;6249814;22;20501;-80
2022/01/25 08:20:00;;;;;;;66.07;28.40;;;4.30;99.90;;;;;;6276142;22;20019;-80
2022/01/25 08:22:26;;;;;;;63.00;28.60;;;4.30;99.90;;;;;;6276948;22;20018;-80
2022/01/25 08:24:52;;;;;;;68.75;28.92;;;4.30;99.90;;;;;;6276975;22;20022;-79
2022/01/25 08:27:20;;;;;;;64.10;28.27;;;4.30;99.90;;;;;;6276542;22;20066;-79
2022/01/25 08:29:53;;;;;;;71.65;28.30;;;4.40;99.90;;;;;;6249485;22;20016;-79
2022/01/25 08:32:19;;;;;;;;;;;4.30;99.90;;;;;;6277181;22;20474;-79
2022/01/25 08:34:46;;;;;;;62.17;26.30;;;4.30;99.90;;;;;;6275004;22;20369;-79
2022/01/25 08:37:12;;;;;;;60.90;26.85;;;4.40;99.90;;;;;;6249576;22;20020;-79
2022/01/25 08:39:37;;;;;;;60.92;27.08;;;4.40;99.90;;;;;;6249517;22;20442;-79
2022/01/25 08:42:04;;;;;;;59.67;24.58;;;4.40;99.90;;;;;;6249333;22;20023;-81
2022/01/25 08:44:30;;;;;;;66.65;26.52;;;4.40;99.90;;;;;;6276500;22;20004;-80
2022/01/25 08:46:56;;;;;;;69.88;28.67;;;4.40;99.90;;;;;;6276820;22;20012;-80
2022/01/25 08:49:22;;;;;;;62.83;28.35;;;4.40;99.90;;;;;;6249596;22;20094;-80
2022/01/25 08:51:48;;;;;;;68.28;27.90;;;4.40;99.90;;;;;;6278427;22;20501;-79
2022/01/25 08:54:16;;;;;;;65.65;28.30;;;4.40;99.90;;;;;;6278977;22;20016;-79
2022/01/25 08:56:42;;;;;;;65.88;26.90;;;4.40;99.90;;;;;;6278665;22;20023;-80
2022/01/25 08:59:09;;;;;;;61.30;27.00;;;4.40;99.90;;;;;;6278882;22;20008;-80
2022/01/25 09:01:34;;;;;;;67.63;30.10;;;4.40;99.90;;;;;;6278837;22;20019;-80
2022/01/25 09:04:03;;;;;;;67.28;27.73;;;4.40;99.90;;;;;;6251368;22;20085;-79
2022/01/25 09:06:29;;;;;;;69.43;27.92;;;4.40;99.90;;;;;;6278723;22;20019;-80
2022/01/25 09:09:04;;;;;;;67.97;28.88;;;4.50;99.90;;;;;;6278396;22;20057;-80
2022/01/25 09:11:30;;;;;;;58.42;27.35;;;4.50;99.90;;;;;;6251318;22;20020;-80
2022/01/25 09:13:57;;;;;;;70.85;28.67;;;4.50;99.90;;;;;;6251328;22;20012;-80
2022/01/25 09:16:23;;;;;;;73.15;28.00;;;4.40;99.90;;;;;;6278701;22;20011;-80
2022/01/25 09:18:48;;;;;;;64.22;29.00;;;4.50;99.90;;;;;;6250200;22;20430;-80
2022/01/25 09:21:14;;;;;;;69.63;29.50;;;4.50;99.90;;;;;;6278193;22;20019;-80
2022/01/25 09:23:40;;;;;;;76.28;30.52;;;4.50;99.90;;;;;;6278620;22;20015;-80
2022/01/25 09:26:06;;;;;;;64.60;27.15;;;4.50;99.90;;;;;;6278430;22;20008;-80
2022/01/25 09:28:32;;;;;;;67.88;28.75;;;4.50;99.90;;;;;;6278438;22;20020;-80
2022/01/25 09:30:58;;;;;;;65.22;28.17;;;4.50;99.90;;;;;;6278540;22;20047;-80
2022/01/25 09:33:25;;;;;;;70.30;29.80;;;4.50;99.90;;;;;;6278171;22;20042;-80
2022/01/25 09:35:52;;;;;;;66.57;28.05;;;4.50;99.90;;;;;;6278490;22;20016;-80
2022/01/25 09:38:19;;;;;;;69.90;28.70;;;4.50;99.90;;;;;;6278164;22;20030;-80
2022/01/25 09:40:45;;;;;;;71.50;28.70;;;4.50;99.90;;;;;;6250717;22;20077;-80
2022/01/25 09:43:11;;;;;;;72.53;30.00;;;4.50;99.90;;;;;;6278295;22;20443;-80
2022/01/25 09:45:38;;;;;;;65.30;27.50;;;4.50;99.90;;;;;;6278282;22;20016;-80
2022/01/25 09:48:05;;;;;;;68.95;28.15;;;4.50;99.90;;;;;;6250735;22;20020;-80
2022/01/25 09:50:32;;;;;;;70.82;30.10;;;4.50;99.90;;;;;;6250870;22;20470;-80
2022/01/25 09:53:00;;;;;;;72.20;31.90;;;4.50;99.90;;;;;;6278166;22;20015;-80
2022/01/25 09:55:30;;;;;;;68.10;29.60;;;4.50;99.90;;;;;;6278421;22;20035;-80
2022/01/25 09:57:56;;;;;;;71.85;29.67;;;4.50;99.90;;;;;;6278350;22;20046;-80
2022/01/25 10:00:25;;;;;;;69.28;29.65;;;4.50;99.90;;;;;;6278286;22;20023;-80
2022/01/25 10:05:46;;;;;;;70.30;29.33;;;4.50;99.90;;;;;;6250653;22;20383;-80
2022/01/25 10:08:24;;;;;;;65.50;30.30;;;4.50;99.90;;;;;;6250292;22;20100;-80
2022/01/25 10:10:51;;;;;;;68.43;30.08;;;4.50;99.90;;;;;;6250866;22;20012;-80
2022/01/25 10:13:25;;;;;;;68.97;29.25;;;4.50;99.90;;;;;;6250691;22;20104;-80
2022/01/25 10:16:10;;;;;;;;;;;4.50;99.90;;;;;;6251031;22;20317;-80
2022/01/25 10:18:41;;;;;;;71.43;28.38;;;4.50;99.90;;;;;;6249742;22;19911;-79
2022/01/25 10:21:19;;;;;;;74.80;30.13;;;4.50;99.90;;;;;;6248998;22;20026;-79
2022/01/25 10:24:05;;;;;;;66.50;27.80;;;4.50;99.90;;;;;;6248936;22;20012;-80
2022/01/25 10:26:39;;;;;;;65.70;27.30;;;4.50;99.90;;;;;;6277787;22;20016;-80
2022/01/25 10:29:15;;;;;;;64.90;27.75;;;4.50;99.90;;;;;;6278028;22;20039;-80
2022/01/25 10:31:47;;;;;;;74.68;29.10;;;4.50;99.90;;;;;;6278316;22;20020;-82
2022/01/25 10:34:15;;;;;;;70.80;29.17;;;4.50;99.90;;;;;;6276559;22;20023;-80
2022/01/25 10:36:47;;;;;;;69.22;28.20;;;4.50;99.90;;;;;;6249473;22;20024;-81
2022/01/25 10:39:18;;;;;;;73.90;28.83;;;4.50;99.90;;;;;;6248599;22;20577;-83
2022/01/25 10:41:44;;;;;;;69.22;29.33;;;4.50;99.90;;;;;;6277431;22;20019;-85
2022/01/25 10:44:10;;;;;;;68.68;30.25;;;4.50;99.90;;;;;;6276653;22;20030;-83
2022/01/25 10:46:36;;;;;;;78.05;29.73;;;4.50;99.90;;;;;;6277090;22;20019;-81
2022/01/25 10:49:05;;;;;;;76.68;29.85;;;4.50;99.90;;;;;;6277278;22;20443;-81
2022/01/25 10:51:40;;;;;;;68.35;29.77;;;4.50;99.90;;;;;;6277488;22;20018;-80
2022/01/25 10:54:15;;;;;;;71.90;29.15;;;4.60;99.90;;;;;;6277549;22;20019;-81
2022/01/25 10:57:17;;;;;;;76.78;31.67;;;4.60;99.90;;;;;;6249686;22;20023;-83
2022/01/25 10:59:55;;;;;;;72.82;29.88;;;4.60;99.90;;;;;;6250074;22;20020;-82
2022/01/25 11:02:21;;;;;;;76.10;30.77;;;4.60;99.90;;;;;;6250203;22;20446;-83
2022/01/25 11:04:47;;;;;;;71.38;29.45;;;4.60;99.90;;;;;;6277068;22;20024;-81
2022/01/25 11:07:12;;;;;;;77.45;30.95;;;4.60;99.90;;;;;;6249755;22;20027;-82
2022/01/25 11:09:43;;;;;;;75.65;30.75;;;4.60;99.90;;;;;;6249672;22;20095;-82
2022/01/25 11:12:13;;;;;;;71.70;29.55;;;4.60;99.90;;;;;;6249960;22;20023;-83
2022/01/25 11:14:56;;;;;;;70.65;29.23;;;4.60;99.90;;;;;;6249769;22;20458;-81
2022/01/25 11:17:28;;;;;;;74.30;29.73;;;4.60;99.90;;;;;;6277006;22;20022;-82
2022/01/25 11:19:55;;;;;;;76.93;29.98;;;4.60;99.90;;;;;;6277384;22;20011;-81
2022/01/25 11:22:23;;;;;;;77.82;30.33;;;4.60;99.90;;;;;;6249720;22;20023;-81
2022/01/25 11:24:51;;;;;;;75.05;29.10;;;4.70;99.90;;;;;;6276797;22;20432;-87
2022/01/25 11:27:19;;;;;;;71.63;29.45;;;4.70;99.90;;;;;;6249909;22;20102;-80
2022/01/25 11:29:47;;;;;;;78.97;30.40;;;4.70;99.90;;;;;;6250056;22;20024;-80
2022/01/25 11:32:16;;;;;;;72.13;29.27;;;4.70;99.90;;;;;;6249844;22;20047;-81
2022/01/25 11:34:44;;;;;;;69.38;29.55;;;4.70;99.90;;;;;;6276859;22;20467;-80
2022/01/25 11:37:12;;;;;;;75.32;31.77;;;4.70;99.90;;;;;;6276760;22;20557;-80
2022/01/25 11:39:45;;;;;;;75.93;30.75;;;4.70;99.90;;;;;;6277316;22;20043;-81
2022/01/25 11:42:23;;;;;;;74.05;29.05;;;4.70;99.90;;;;;;6277255;22;20030;-83
2022/01/25 11:44:56;;;;;;;69.38;31.15;;;4.70;99.90;;;;;;6249878;22;20019;-84
2022/01/25 11:47:31;;;;;;;71.38;28.85;;;4.70;99.90;;;;;;6277206;22;20024;-80
2022/01/25 11:50:03;;;;;;;69.13;29.90;;;4.70;99.90;;;;;;6277161;22;20339;-81
2022/01/25 11:52:31;;;;;;;74.63;30.83;;;4.70;99.90;;;;;;6277229;22;20011;-80
2022/01/25 11:55:26;;;;;;;75.63;30.50;;;4.70;99.90;;;;;;6276804;22;20305;-81
2022/01/25 11:57:56;;;;;;;68.70;28.05;;;4.70;99.90;;;;;;6277052;22;20018;-81
2022/01/25 12:00:40;;;;;;;72.70;31.15;;;4.70;99.90;;;;;;6276821;22;20107;-81
2022/01/25 12:03:28;;;;;;;76.05;29.58;;;4.70;99.90;;;;;;6277112;22;20016;-81
2022/01/25 12:06:17;;;;;;;72.38;30.42;;;4.70;99.90;;;;;;6230865;22;20015;-83
2022/01/25 12:09:04;;;;;;;76.72;29.35;;;4.70;99.90;;;;;;6276636;22;20016;-81
2022/01/25 12:11:47;;;;;;;74.55;28.48;;;4.70;99.90;;;;;;6277097;22;20086;-81
2022/01/25 12:14:23;;;;;;;64.80;27.10;;;4.70;99.90;;;;;;6277041;22;20016;-80
2022/01/25 12:16:51;;;;;;;68.97;28.23;;;4.70;99.90;;;;;;6276561;22;20394;-81
2022/01/25 12:19:31;;;;;;;78.00;30.05;;;4.70;99.90;;;;;;6276950;22;20011;-81
2022/01/25 12:21:59;;;;;;;69.55;29.77;;;4.70;99.90;;;;;;6249632;22;20107;-81
2022/01/25 12:24:33;;;;;;;69.55;29.00;;;4.80;99.90;;;;;;6276857;22;20118;-81
2022/01/25 12:29:41;;;;;;;67.43;28.92;;;4.80;99.90;;;;;;6276634;22;20027;-81
2022/01/25 12:32:19;;;;;;;69.78;29.77;;;4.80;99.90;;;;;;6276616;22;20342;-81
2022/01/25 12:35:07;;;;;;;68.50;30.30;;;4.80;99.90;;;;;;6276925;22;20027;-81
2022/01/25 12:37:46;;;;;;;69.07;29.70;;;4.80;99.90;;;;;;6276457;22;20432;-81
2022/01/25 12:40:26;;;;;;;74.35;30.52;;;4.80;99.90;;;;;;6276874;22;20019;-81
2022/01/25 12:43:01;;;;;;;71.55;30.38;;;4.80;99.90;;;;;;6276919;22;20020;-81
2022/01/25 12:45:29;;;;;;;62.20;27.42;;;4.80;99.90;;;;;;6276573;22;20463;-83
2022/01/25 12:47:58;;;;;;;73.10;29.20;;;4.80;99.90;;;;;;6276764;22;20026;-83
2022/01/25 12:50:25;;;;;;;68.93;27.83;;;4.80;99.90;;;;;;6276785;22;20016;-80
2022/01/25 12:52:51;;;;;;;70.07;29.45;;;4.70;99.90;;;;;;6276528;22;20019;-80
2022/01/25 12:55:24;;;;;;;68.03;27.77;;;4.70;99.90;;;;;;6249418;22;20054;-79
2022/01/25 12:57:51;;;;;;;;;;;4.80;99.90;;;;;;6277386;22;20020;-80
2022/01/25 13:00:18;;;;;;;66.25;27.33;;;4.80;99.90;;;;;;6276521;22;19919;-82
2022/01/25 13:02:44;;;;;;;67.72;29.88;;;4.70;99.90;;;;;;6276322;22;20340;-81
2022/01/25 13:05:21;;;;;;;70.13;28.98;;;4.70;99.90;;;;;;6276284;22;20444;-81
2022/01/25 13:07:48;;;;;;;71.47;29.70;;;4.70;99.90;;;;;;6249260;22;20027;-82
2022/01/25 13:10:29;;;;;;;73.85;29.10;;;4.70;99.90;;;;;;6276258;22;20107;-82
2022/01/25 13:12:58;;;;;;;74.90;29.88;;;4.70;99.90;;;;;;6249347;22;20027;-81
2022/01/25 13:18:13;;;;;;;78.43;29.83;;;4.70;99.90;;;;;;6276829;22;20024;-81
2022/01/25 13:20:41;;;;;;;73.80;29.50;;;4.70;99.90;;;;;;6276357;22;20023;-80
2022/01/25 13:23:07;;;;;;;71.55;30.40;;;4.70;99.90;;;;;;6276511;22;20047;-81
2022/01/25 13:28:33;;;;;;;70.53;29.98;;;4.70;99.90;;;;;;6276586;22;20020;-81
2022/01/25 13:30:59;;;;;;;72.68;30.77;;;4.70;99.90;;;;;;6249130;22;20015;-82
2022/01/25 13:33:28;;;;;;;75.90;30.67;;;4.70;99.90;;;;;;6276298;22;20016;-82
2022/01/25 13:35:56;;;;;;;75.18;30.40;;;4.60;99.90;;;;;;6248969;22;20034;-81
2022/01/25 13:38:37;;;;;;;75.32;29.98;;;4.60;99.90;;;;;;6278095;22;20027;-82
2022/01/25 13:41:17;;;;;;;77.57;31.85;;;4.60;99.90;;;;;;6278302;22;20056;-82
2022/01/25 13:46:30;;;;;;;75.55;31.27;;;4.60;99.90;;;;;;6250741;22;20027;-86
2022/01/25 13:48:58;;;;;;;74.50;29.35;;;4.50;99.90;;;;;;6278335;22;20011;-80
2022/01/25 13:51:27;;;;;;;71.97;29.55;;;4.60;99.90;;;;;;6250890;22;20027;-85
2022/01/25 13:53:58;;;;;;;71.05;28.90;;;4.60;99.90;;;;;;6278261;22;20024;-81
2022/01/25 13:56:28;;;;;;;82.05;33.28;;;4.60;99.90;;;;;;6250990;22;20055;-82
2022/01/25 13:58:54;;;;;;;78.75;31.38;;;4.60;99.90;;;;;;6278031;22;20073;-81
2022/01/25 14:01:23;;;;;;;74.47;30.85;;;4.60;99.90;;;;;;6278364;22;20012;-80
2022/01/25 14:04:04;;;;;;;76.45;31.08;;;4.60;99.90;;;;;;6250965;22;20019;-80
2022/01/25 14:06:36;;;;;;;79.53;31.42;;;4.60;99.90;;;;;;6278129;22;20107;-80
2022/01/25 14:09:11;;;;;;;76.22;29.90;;;4.60;99.90;;;;;;6250565;22;20334;-79
2022/01/25 14:25:39;;;;;;;71.68;29.52;;;4.60;99.90;;;;;;6230567;22;20023;-81
2022/01/25 14:28:15;;;;;;;71.65;29.60;;;4.60;99.90;;;;;;6277798;22;20011;-81
2022/01/25 14:30:50;;;;;;;75.68;29.48;;;4.60;99.90;;;;;;6278145;22;20016;-80
2022/01/25 14:33:27;;;;;;;70.70;29.02;;;4.60;99.90;;;;;;6277982;22;20065;-80
2022/01/25 14:36:00;;;;;;;72.82;29.55;;;4.60;99.90;;;;;;6277979;22;20030;-80
2022/01/25 14:38:28;;;;;;;71.05;30.05;;;4.60;99.90;;;;;;6277849;22;20020;-80
2022/01/25 14:41:18;;;;;;;69.15;27.50;;;4.60;99.90;;;;;;6277953;22;20012;-80
2022/01/25 14:43:54;;;;;;;65.22;28.88;;;4.60;99.90;;;;;;6260009;22;20381;-79
2022/01/25 14:46:25;;;;;;;73.85;28.48;;;4.60;99.90;;;;;;6250458;22;20012;-80
2022/01/25 14:49:20;;;;;;;71.35;29.73;;;4.60;99.90;;;;;;6277044;22;20029;-79
2022/01/25 14:51:52;;;;;;;67.43;28.40;;;4.60;99.90;;;;;;6277881;22;20011;-79
2022/01/25 14:54:24;;;;;;;72.13;29.67;;;4.50;99.90;;;;;;6277787;22;20034;-80
2022/01/25 14:56:55;;;;;;;77.15;29.40;;;4.50;99.90;;;;;;6277769;22;20019;-80